Nearby METAR Reports

 

YMER - Merimbula Arpt, Australia
Distance from station: SE 12km
Updated: Wed, 15-Aug-2018 9:00pm AEST
Clear
Clear
 Wind from calm
Wind: Calm
Temperature: 10°C
Dew Point: 3°C
Humidity: 62%
Barometer: 1005 hPa
Clouds: Clear
Visibility: 10 km
2018/08/15 11:00 YMER 151100Z AUTO 00000KT 9999 // NCD 10/03 Q1005
YCOM - Cooma Snowy Mtns, Australia
Distance from station: NW 96km
Updated: Wed, 15-Aug-2018 9:00pm AEST
Clear
Clear
 Wind from WNW
Wind: WNW 39 km/h, Gust: 67 km/h
Temperature: 8°C
Wind Chill: 3°C
Dew Point: 2°C
Humidity: 66%
Barometer: 1007 hPa
Clouds: Clear
Visibility: 10 km
2018/08/15 11:00 YCOM 151100Z AUTO 30021G36KT 9999 // NCD 08/02 Q1007
 
YSCB - Canberra (civ/Mi, Australia
Distance from station: NNW 182km
Updated: Wed, 15-Aug-2018 9:00pm AEST
Clear
Clear
 Wind from NNW
Wind: NNW 35 km/h
Temperature: 13°C
Dew Point: 1°C
Humidity: 44%
Barometer: 1009 hPa
Clouds: Clear
Visibility: 10 km
2018/08/15 11:00 YSCB 151100Z AUTO 33019KT 9999 // NCD 13/01 Q1009
YSNW - Nowra (aus-Navy), Australia
Distance from station: NNE 219km
Updated: Wed, 15-Aug-2018 9:00pm AEST
Clear
Clear
 Wind from NW
Wind: NW 20 km/h
Temperature: 19°C
Dew Point: -1°C
Humidity: 26%
Barometer: 1007 hPa
Clouds: Clear
Visibility: 10 km
2018/08/15 11:00 YSNW 151100Z AUTO 31011KT 9999 // NCD 19/M01 Q1007
 
YMAY - Albury Airport, Australia
Distance from station: WNW 271km
Updated: Wed, 15-Aug-2018 9:00pm AEST
Overcast
Overcast
 Wind from NW
Wind: NW 13 km/h
Temperature: 11°C
Dew Point: 9°C
Humidity: 88%
Barometer: 1011 hPa
Clouds: Overcast
Visibility: 10 km
Cloud details: Partly cloudy 1219 m
Mostly cloudy 1676 m
Overcast 1951 m
2018/08/15 11:00 YMAY 151100Z AUTO 32007KT 9999 // SCT040 BKN055 OVC064 11/09 Q1011
YSWG - Wagga Wagga(Cv/M, Australia
Distance from station: NW 283km
Updated: Wed, 15-Aug-2018 9:00pm AEST
Overcast
Overcast
 Wind from W
Wind: W 15 km/h
Temperature: 14°C
Dew Point: 4°C
Humidity: 51%
Barometer: 1011 hPa
Clouds: Overcast
Visibility: 10 km
Cloud details: Overcast 2713 m
2018/08/15 11:00 YSWG 151100Z AUTO 28008KT 9999 // OVC089 14/04 Q1011
 
YWGT - Wangaratta Arp, Australia
Distance from station: W 317km
Updated: Wed, 15-Aug-2018 9:00pm AEST
Overcast
Overcast
 Wind from W
Wind: W 24 km/h
Temperature: 12°C
Dew Point: 5°C
Humidity: 63%
Barometer: 1010 hPa
Clouds: Overcast
Visibility: 10 km
Cloud details: Overcast 2926 m
2018/08/15 11:00 YWGT 151100Z AUTO 27013KT 9999 // OVC096 12/05 Q1010
YSSY - Sydney Intl Airp, Australia
Distance from station: NNE 343km
Updated: Wed, 15-Aug-2018 9:00pm AEST
Clear
Clear
 Wind from NNW
Wind: NNW 22 km/h
Temperature: 21°C
Dew Point: -5°C
Humidity: 17%
Barometer: 1009 hPa
Summary: Clear
Visibility: greater than 10 km
2018/08/15 11:00 YSSY 151100Z 33012KT CAVOK 21/M05 Q1009 FM1100 MOD/SEV TURB BLW 5000FT